Time;durP1;ratioP1;P1;durP2;ratioP2;P2;SDS_P1;SDS_P2;PMS_P1;PMS_P2;Temp;Humidity;BMP_temperature;BMP_pressure;BME280_temperature;BME280_humidity;BME280_pressure;Samples;Min_cycle;Max_cycle;Signal;HPM_P1;HPM_P2
2022/07/24 00:01:56;;;;;;;13.40;9.48;;;;;;;23.12;100.00;98373.11;1664229;85;28133;-84
2022/07/24 00:04:23;;;;;;;13.62;10.72;;;;;;;23.15;100.00;98379.40;1683844;83;28139;-84
2022/07/24 00:06:58;;;;;;;12.40;10.32;;;;;;;23.19;100.00;98379.33;1701325;83;28120;-89
2022/07/24 00:09:25;;;;;;;9.00;8.10;;;;;;;23.27;100.00;98388.58;1682809;82;28057;-89
2022/07/24 00:11:51;;;;;;;11.55;9.65;;;;;;;23.28;100.00;98390.24;1690653;83;28097;-89
2022/07/24 00:14:32;;;;;;;13.40;9.43;;;;;;;23.23;100.00;98395.32;1654039;86;28016;-86
2022/07/24 00:17:15;;;;;;;11.90;9.78;;;;;;;23.20;100.00;98400.52;1683137;84;28087;-86
2022/07/24 00:20:03;;;;;;;12.13;9.60;;;;;;;23.22;100.00;98401.17;1682466;84;28100;-86
2022/07/24 00:22:27;;;;;;;11.35;9.58;;;;;;;23.22;100.00;98402.50;1689775;83;28115;-84
2022/07/24 00:24:54;;;;;;;11.08;9.25;;;;;;;23.24;100.00;98402.30;1687502;83;28060;-85
2022/07/24 00:27:22;;;;;;;12.25;9.15;;;;;;;23.26;100.00;98402.94;1687409;84;28113;-86
2022/07/24 00:29:48;;;;;;;11.68;10.48;;;;;;;23.27;100.00;98403.27;1689321;83;28090;-88
2022/07/24 00:32:14;;;;;;;12.63;10.05;;;;;;;23.28;100.00;98399.59;1689031;83;28059;-88
2022/07/24 00:34:43;;;;;;;10.95;9.70;;;;;;;23.26;100.00;98399.77;1655493;84;28090;-88
2022/07/24 00:37:09;;;;;;;13.25;9.25;;;;;;;23.26;100.00;98405.61;1689040;83;28180;-88
2022/07/24 00:39:35;;;;;;;11.57;9.60;;;;;;;23.26;100.00;98406.95;1689590;82;28110;-88
2022/07/24 00:42:02;;;;;;;9.48;8.48;;;;;;;23.26;100.00;98405.61;1690067;83;28093;-89
2022/07/24 00:44:30;;;;;;;12.00;9.78;;;;;;;23.22;100.00;98405.17;1685919;82;27999;-89
2022/07/24 00:46:56;;;;;;;13.25;10.50;;;;;;;23.22;100.00;98409.69;1684134;82;28104;-89
2022/07/24 00:49:27;;;;;;;12.30;9.70;;;;;;;23.24;100.00;98412.97;1685702;84;28110;-89
2022/07/24 00:51:52;;;;;;;12.93;10.55;;;;;;;23.24;100.00;98411.64;1685058;82;28165;-89
2022/07/24 00:54:21;;;;;;;15.58;10.48;;;;;;;23.21;100.00;98404.02;1687572;82;28004;-89
2022/07/24 00:56:51;;;;;;;11.57;9.23;;;;;;;23.20;100.00;98398.35;1689546;82;28116;-89
2022/07/24 00:59:19;;;;;;;15.65;11.08;;;;;;;23.18;100.00;98396.39;1654173;84;28578;-89
2022/07/24 01:01:46;;;;;;;15.88;10.68;;;;;;;23.17;100.00;98389.39;1688261;84;28095;-88
2022/07/24 01:04:13;;;;;;;13.30;11.05;;;;;;;23.16;100.00;98397.08;1691569;82;28154;-88
2022/07/24 01:06:49;;;;;;;15.88;11.35;;;;;;;23.09;100.00;98393.49;1692349;82;28137;-89
2022/07/24 01:09:16;;;;;;;12.70;10.75;;;;;;;23.04;100.00;98393.23;1690751;84;28101;-89
2022/07/24 01:11:52;;;;;;;11.73;10.55;;;;;;;23.02;100.00;98398.75;1691952;82;28179;-89
2022/07/24 01:14:25;;;;;;;16.00;10.48;;;;;;;22.96;100.00;98398.19;1680492;84;28086;-89
2022/07/24 01:16:52;;;;;;;16.62;12.05;;;;;;;22.93;100.00;98395.37;1683030;83;28146;-88
2022/07/24 01:19:19;;;;;;;15.28;11.73;;;;;;;22.92;100.00;98392.87;1682792;83;28020;-88
2022/07/24 01:21:49;;;;;;;12.68;11.18;;;;;;;22.91;100.00;98384.04;1681504;83;28107;-90
2022/07/24 01:24:16;;;;;;;13.35;11.25;;;;;;;22.89;100.00;98390.59;1683204;83;28000;-88
2022/07/24 01:26:46;;;;;;;16.85;11.48;;;;;;;22.79;100.00;98398.06;1680266;84;28079;-87
2022/07/24 01:29:19;;;;;;;14.35;10.98;;;;;;;22.76;100.00;98393.91;1684577;83;28072;-88
2022/07/24 01:31:46;;;;;;;14.40;11.28;;;;;;;22.79;100.00;98402.89;1682012;84;28007;-87
2022/07/24 01:34:17;;;;;;;13.75;11.50;;;;;;;22.78;100.00;98401.23;1682776;84;28095;-88
2022/07/24 01:36:43;;;;;;;14.07;10.82;;;;;;;22.77;100.00;98402.23;1677980;83;28158;-88
2022/07/24 01:39:10;;;;;;;12.55;11.03;;;;;;;22.83;100.00;98404.67;1682896;84;28110;-88
2022/07/24 01:41:36;;;;;;;15.83;11.73;;;;;;;22.74;100.00;98404.46;1682354;83;28265;-88
2022/07/24 01:44:02;;;;;;;13.18;11.78;;;;;;;22.71;100.00;98396.78;1691691;82;28246;-88
2022/07/24 01:46:32;;;;;;;14.15;10.75;;;;;;;22.72;100.00;98399.80;1706476;82;28084;-88
2022/07/24 01:48:58;;;;;;;11.97;10.45;;;;;;;22.69;100.00;98399.66;1667044;84;28076;-89
2022/07/24 01:51:30;;;;;;;15.28;11.00;;;;;;;22.59;100.00;98405.74;1713149;82;28126;-87
2022/07/24 01:53:56;;;;;;;13.13;11.20;;;;;;;22.42;100.00;98407.75;1710325;82;28164;-88
2022/07/24 01:56:22;;;;;;;13.58;10.53;;;;;;;22.27;100.00;98408.75;1695592;83;28147;-88
2022/07/24 01:58:48;;;;;;;14.03;11.70;;;;;;;22.18;100.00;98403.19;1669590;84;28068;-88
2022/07/24 02:01:15;;;;;;;13.98;11.45;;;;;;;22.15;100.00;98402.23;1692824;84;28044;-88
2022/07/24 02:03:41;;;;;;;10.80;9.70;;;;;;;22.08;100.00;98404.78;1685686;83;28092;-88
2022/07/24 02:06:07;;;;;;;11.88;10.45;;;;;;;22.03;100.00;98406.66;1683507;83;27986;-88
2022/07/24 02:08:34;;;;;;;14.18;11.18;;;;;;;21.95;100.00;98413.38;1705376;83;28125;-88
2022/07/24 02:11:02;;;;;;;14.03;12.15;;;;;;;21.93;100.00;98411.35;1675661;83;28016;-86
2022/07/24 02:13:29;;;;;;;15.45;11.53;;;;;;;21.87;100.00;98409.44;1706582;83;28081;-88
2022/07/24 02:15:55;;;;;;;12.05;10.80;;;;;;;21.82;100.00;98405.11;1702868;83;28084;-88
2022/07/24 02:18:21;;;;;;;14.10;11.20;;;;;;;21.77;100.00;98412.81;1709124;81;28119;-88
2022/07/24 02:20:48;;;;;;;13.72;11.50;;;;;;;21.77;100.00;98412.81;1703738;83;28014;-88
2022/07/24 02:23:17;;;;;;;14.53;12.05;;;;;;;21.88;100.00;98413.73;1698428;83;28069;-88
2022/07/24 02:25:52;;;;;;;14.47;11.70;;;;;;;21.92;100.00;98412.39;1663915;85;28056;-88
2022/07/24 02:28:20;;;;;;;13.00;11.60;;;;;;;21.90;100.00;98415.72;1670842;85;28158;-84
2022/07/24 02:30:47;;;;;;;13.40;11.25;;;;;;;21.87;100.00;98421.42;1709194;83;28050;-84
2022/07/24 02:33:15;;;;;;;13.72;12.18;;;;;;;21.89;100.00;98415.39;1711724;83;28080;-84
2022/07/24 02:35:41;;;;;;;14.90;12.33;;;;;;;21.88;100.00;98420.39;1701232;82;28096;-83
2022/07/24 02:38:13;;;;;;;15.45;13.80;;;;;;;21.79;100.00;98417.98;1668092;85;28005;-86
2022/07/24 02:40:42;;;;;;;16.57;13.25;;;;;;;21.77;100.00;98421.31;1684842;83;28113;-86
2022/07/24 02:43:10;;;;;;;14.15;12.00;;;;;;;21.79;100.00;98423.30;1707244;83;28092;-88
2022/07/24 02:45:36;;;;;;;15.18;12.05;;;;;;;21.85;100.00;98424.77;1701493;82;28066;-88
2022/07/24 02:48:02;;;;;;;14.23;11.57;;;;;;;21.87;100.00;98425.92;1689995;83;28110;-88
2022/07/24 02:50:35;;;;;;;13.65;11.80;;;;;;;21.88;100.00;98424.89;1682773;83;28121;-89
2022/07/24 02:53:03;;;;;;;13.80;11.55;;;;;;;21.89;100.00;98434.05;1713709;81;28094;-89
2022/07/24 02:55:29;;;;;;;13.22;10.48;;;;;;;21.95;100.00;98432.53;1724641;81;28139;-89
2022/07/24 02:57:56;;;;;;;13.32;11.00;;;;;;;22.00;100.00;98429.66;1722489;81;27997;-88
2022/07/24 03:00:28;;;;;;;12.43;10.65;;;;;;;21.99;100.00;98434.66;1696016;81;28094;-89
2022/07/24 03:02:58;;;;;;;13.40;10.18;;;;;;;22.02;100.00;98442.81;1674574;84;28132;-89
2022/07/24 03:05:35;;;;;;;12.82;10.18;;;;;;;22.03;100.00;98445.31;1659244;84;28085;-89
2022/07/24 03:08:04;;;;;;;12.82;10.43;;;;;;;22.07;100.00;98446.60;1667055;85;28078;-86
2022/07/24 03:10:30;;;;;;;13.22;10.45;;;;;;;21.95;100.00;98448.02;1666792;83;28546;-86
2022/07/24 03:13:05;;;;;;;10.98;9.10;;;;;;;21.79;100.00;98457.44;1674815;83;28115;-86
2022/07/24 03:15:37;;;;;;;10.28;9.18;;;;;;;21.78;100.00;98458.94;1676058;85;28105;-86
2022/07/24 03:18:03;;;;;;;11.43;10.05;;;;;;;21.80;100.00;98457.77;1675684;85;28178;-86
2022/07/24 03:20:36;;;;;;;10.70;9.60;;;;;;;21.82;100.00;98462.40;1689720;82;28070;-86
2022/07/24 03:23:02;;;;;;;10.43;9.35;;;;;;;21.88;100.00;98467.52;1683740;84;28088;-86
2022/07/24 03:25:28;;;;;;;9.93;8.93;;;;;;;21.93;100.00;98471.31;1653853;84;28102;-86
2022/07/24 03:27:54;;;;;;;11.05;9.88;;;;;;;22.00;100.00;98472.80;1653974;84;28048;-85
2022/07/24 03:30:26;;;;;;;9.93;8.95;;;;;;;21.81;100.00;98472.76;1686364;82;43591;-88
2022/07/24 03:32:58;;;;;;;11.45;10.10;;;;;;;21.69;100.00;98476.33;1689833;82;28142;-86
2022/07/24 03:35:28;;;;;;;10.15;9.15;;;;;;;21.65;100.00;98473.70;1675998;85;28068;-85
2022/07/24 03:37:59;;;;;;;10.88;9.10;;;;;;;21.70;100.00;98479.33;1675066;85;28039;-86
2022/07/24 03:40:25;;;;;;;10.30;9.18;;;;;;;21.76;100.00;98472.96;1674924;83;28101;-86
2022/07/24 03:42:52;;;;;;;10.82;9.18;;;;;;;21.85;100.00;98478.05;1675608;84;28080;-85
2022/07/24 03:45:19;;;;;;;10.45;8.90;;;;;;;21.95;100.00;98479.17;1670978;84;28084;-86
2022/07/24 03:47:46;;;;;;;9.85;8.23;;;;;;;22.03;100.00;98484.45;1670794;85;28116;-86
2022/07/24 03:50:12;;;;;;;10.10;8.55;;;;;;;22.04;100.00;98486.92;1663828;84;28100;-86
2022/07/24 03:52:41;;;;;;;11.60;9.13;;;;;;;22.04;100.00;98485.59;1672757;85;28087;-86
2022/07/24 03:55:08;;;;;;;12.53;9.13;;;;;;;22.04;100.00;98488.75;1675663;84;28170;-86
2022/07/24 03:57:34;;;;;;;11.03;9.10;;;;;;;22.08;100.00;98491.41;1666321;85;28110;-86
2022/07/24 04:00:00;;;;;;;10.70;8.50;;;;;;;22.10;100.00;98496.04;1663535;85;28169;-86
2022/07/24 04:02:30;;;;;;;9.93;8.45;;;;;;;22.10;100.00;98498.70;1670877;84;28071;-85
2022/07/24 04:05:00;;;;;;;9.25;7.90;;;;;;;22.13;100.00;98493.03;1673533;85;28208;-85
2022/07/24 04:07:26;;;;;;;11.08;8.75;;;;;;;22.15;100.00;98488.87;1676142;85;28087;-86
2022/07/24 04:09:56;;;;;;;12.13;9.15;;;;;;;22.18;100.00;98494.66;1676143;85;28118;-86
2022/07/24 04:12:25;;;;;;;14.50;7.53;;;;;;;22.24;100.00;98501.95;1675816;85;28131;-86
2022/07/24 04:14:52;;;;;;;9.90;8.18;;;;;;;22.31;100.00;98504.73;1670200;84;28192;-86
2022/07/24 04:17:24;;;;;;;10.35;8.23;;;;;;;22.32;100.00;98503.19;1666561;85;28067;-87
2022/07/24 04:19:51;;;;;;;;;;;;;;;22.31;100.00;98501.53;1674829;85;28183;-85
2022/07/24 04:22:18;;;;;;;8.60;7.70;;;;;;;22.40;100.00;98500.97;1675087;85;24817;-85
2022/07/24 04:24:49;;;;;;;8.75;7.33;;;;;;;22.50;100.00;98510.38;1673813;85;28083;-85
2022/07/24 04:27:15;;;;;;;9.70;7.53;;;;;;;22.59;100.00;98508.45;1674029;85;28064;-85
2022/07/24 04:29:54;;;;;;;9.48;7.65;;;;;;;22.68;100.00;98516.72;1674093;85;28074;-85
2022/07/24 04:32:17;;;;;;;7.15;6.45;;;;;;;22.70;100.00;98521.85;1673052;84;28031;-85
2022/07/24 04:34:51;;;;;;;7.45;6.62;;;;;;;22.73;100.00;98521.03;1674942;85;28165;-85
2022/07/24 04:37:17;;;;;;;8.33;6.92;;;;;;;22.76;100.00;98522.50;1652745;85;28134;-85
2022/07/24 04:39:49;;;;;;;8.08;7.28;;;;;;;22.81;100.00;98522.27;1674025;84;28073;-85
2022/07/24 04:42:19;;;;;;;7.80;6.78;;;;;;;22.79;100.00;98528.82;1665678;84;28081;-85
2022/07/24 04:44:45;;;;;;;9.23;7.20;;;;;;;22.75;100.00;98536.84;1698395;82;28090;-85
2022/07/24 04:47:11;;;;;;;10.32;7.70;;;;;;;22.72;100.00;98532.71;1662244;84;28116;-84
2022/07/24 04:49:37;;;;;;;8.03;6.90;;;;;;;22.73;100.00;98526.88;1700295;82;28131;-85
2022/07/24 04:52:03;;;;;;;7.90;6.67;;;;;;;22.80;100.00;98528.61;1693718;84;28069;-85
2022/07/24 04:54:29;;;;;;;8.18;6.65;;;;;;;22.89;100.00;98531.55;1695818;83;28139;-85
2022/07/24 04:56:56;;;;;;;6.20;5.55;;;;;;;22.89;100.00;98535.55;1699648;82;28091;-85
2022/07/24 04:59:22;;;;;;;9.90;6.97;;;;;;;22.84;100.00;98539.27;1658727;85;28158;-85
2022/07/24 05:01:50;;;;;;;7.25;6.42;;;;;;;22.83;100.00;98537.61;1652829;84;28028;-85
2022/07/24 05:04:16;;;;;;;7.10;6.28;;;;;;;22.82;100.00;98537.78;1688188;82;28152;-86
2022/07/24 05:06:42;;;;;;;8.15;5.75;;;;;;;22.79;100.00;98542.99;1657141;84;28067;-84
2022/07/24 05:09:09;;;;;;;6.45;5.30;;;;;;;22.60;100.00;98538.13;1690919;82;28073;-85
2022/07/24 05:11:36;;;;;;;7.35;5.30;;;;;;;22.42;100.00;98542.97;1696560;82;28110;-88
2022/07/24 05:14:02;;;;;;;6.65;5.45;;;;;;;22.44;100.00;98543.10;1652747;86;28091;-88
2022/07/24 05:16:31;;;;;;;6.53;5.78;;;;;;;22.47;100.00;98540.59;1694452;82;28000;-87
2022/07/24 05:18:57;;;;;;;7.95;5.25;;;;;;;22.49;100.00;98538.55;1696209;83;28040;-83
2022/07/24 05:21:23;;;;;;;5.72;5.00;;;;;;;22.45;100.00;98539.43;1699922;82;28125;-88
2022/07/24 05:23:49;;;;;;;6.47;5.12;;;;;;;22.42;100.00;98541.11;1697233;83;28094;-88
2022/07/24 05:26:16;;;;;;;7.85;5.58;;;;;;;22.44;100.00;98544.94;1654463;84;28087;-88
2022/07/24 05:28:42;;;;;;;5.33;4.72;;;;;;;22.40;100.00;98546.31;1698914;82;28095;-88
2022/07/24 05:31:08;;;;;;;10.75;5.40;;;;;;;22.42;100.00;98546.97;1654059;84;28180;-83
2022/07/24 05:33:35;;;;;;;6.20;4.75;;;;;;;22.34;100.00;98546.52;1651188;86;28100;-84
2022/07/24 05:36:01;;;;;;;6.33;4.53;;;;;;;22.26;100.00;98545.73;1693343;83;28156;-84
2022/07/24 05:38:28;;;;;;;6.42;5.40;;;;;;;22.29;100.00;98548.06;1693224;82;45332;-88
2022/07/24 05:40:55;;;;;;;5.67;4.87;;;;;;;22.29;100.00;98548.06;1693486;82;28077;-88
2022/07/24 05:43:24;;;;;;;6.25;4.45;;;;;;;22.35;100.00;98546.02;1654072;84;28122;-88
2022/07/24 05:45:53;;;;;;;6.80;4.70;;;;;;;22.35;100.00;98548.19;1704488;83;28130;-89
2022/07/24 05:48:19;;;;;;;7.00;4.37;;;;;;;22.25;100.00;98543.60;1666706;84;28085;-88
2022/07/24 05:50:45;;;;;;;7.30;4.50;;;;;;;22.31;100.00;98548.19;1675422;84;28165;-83
2022/07/24 05:53:11;;;;;;;4.50;4.08;;;;;;;;;;1691399;83;28061;-83
2022/07/24 05:55:38;;;;;;;4.70;4.08;;;;;;;22.39;100.00;98548.64;1705303;83;28489;-82
2022/07/24 05:58:05;;;;;;;6.55;4.40;;;;;;;22.41;100.00;98552.81;1661859;84;28110;-84
2022/07/24 06:00:31;;;;;;;6.50;4.22;;;;;;;22.48;100.00;98553.73;1675990;83;28095;-86
2022/07/24 06:02:58;;;;;;;5.37;4.20;;;;;;;22.51;100.00;98544.55;1704001;82;28014;-85
2022/07/24 06:05:24;;;;;;;6.30;4.03;;;;;;;22.49;100.00;98545.22;1678144;83;28145;-85
2022/07/24 06:07:50;;;;;;;6.10;4.17;;;;;;;22.49;100.00;98550.56;1715318;82;28059;-86
2022/07/24 06:10:17;;;;;;;7.75;4.90;;;;;;;22.57;100.00;98543.84;1688494;84;28057;-86
2022/07/24 06:12:44;;;;;;;6.33;4.05;;;;;;;22.67;100.00;98547.07;1688959;84;28092;-85
2022/07/24 06:15:12;;;;;;;6.22;4.50;;;;;;;22.73;100.00;98541.05;1693208;84;28154;-86
2022/07/24 06:17:39;;;;;;;4.45;3.52;;;;;;;22.79;100.00;98542.99;1695623;84;28081;-85
2022/07/24 06:20:07;;;;;;;5.30;3.25;;;;;;;22.82;100.00;98547.13;1681361;83;28187;-86
2022/07/24 06:22:34;;;;;;;5.33;3.33;;;;;;;22.83;100.00;98548.28;1684768;83;28146;-86
2022/07/24 06:25:00;;;;;;;3.92;3.22;;;;;;;22.79;100.00;98547.50;1719906;83;28224;-86
2022/07/24 06:27:27;;;;;;;5.65;3.67;;;;;;;22.84;100.00;98543.27;1718500;83;28091;-86
2022/07/24 06:29:54;;;;;;;4.37;3.27;;;;;;;22.82;100.00;98549.79;1717138;83;28098;-85
2022/07/24 06:32:21;;;;;;;5.08;3.40;;;;;;;22.59;100.00;98544.47;1707470;82;28212;-85
2022/07/24 06:34:49;;;;;;;3.83;3.42;;;;;;;22.40;100.00;98547.64;1708637;82;28083;-85
2022/07/24 06:37:15;;;;;;;5.37;3.12;;;;;;;22.41;100.00;98549.31;1700503;83;28077;-85
2022/07/24 06:39:43;;;;;;;6.17;3.52;;;;;;;22.43;100.00;98544.61;1709043;82;28146;-85
2022/07/24 06:42:09;;;;;;;3.95;2.77;;;;;;;22.43;100.00;98545.94;1689549;82;28088;-85
2022/07/24 06:44:36;;;;;;;4.12;2.55;;;;;;;22.42;100.00;98541.11;1685871;83;27982;-85
2022/07/24 06:47:02;;;;;;;3.37;2.75;;;;;;;22.51;100.00;98547.22;1638518;83;28076;-85
2022/07/24 06:49:28;;;;;;;3.83;2.55;;;;;;;22.54;100.00;98546.84;1662071;83;28138;-85
2022/07/24 06:51:55;;;;;;;4.62;2.98;;;;;;;22.53;100.00;98542.52;1660889;84;28133;-85
2022/07/24 06:54:21;;;;;;;4.95;2.72;;;;;;;22.54;100.00;98546.34;1660977;85;28162;-85
2022/07/24 06:56:47;;;;;;;5.53;3.12;;;;;;;22.56;100.00;98547.51;1652819;85;28140;-85
2022/07/24 06:59:16;;;;;;;4.00;3.12;;;;;;;22.53;100.00;98545.18;1640091;85;28535;-85
2022/07/24 07:01:44;;;;;;;4.10;2.83;;;;;;;22.56;100.00;98544.84;1628603;86;28143;-86
2022/07/24 07:04:10;;;;;;;4.50;3.17;;;;;;;22.58;100.00;98543.33;1635957;85;28130;-85
2022/07/24 07:06:37;;;;;;;4.03;2.77;;;;;;;22.65;100.00;98546.41;1666196;84;28081;-85
2022/07/24 07:09:03;;;;;;;5.03;3.05;;;;;;;22.74;100.00;98550.72;1662998;84;28096;-85
2022/07/24 07:11:29;;;;;;;4.17;3.05;;;;;;;22.82;100.00;98554.63;1658572;84;28200;-86
2022/07/24 07:13:55;;;;;;;4.05;2.72;;;;;;;22.78;100.00;98553.84;1668694;84;28546;-86
2022/07/24 07:16:21;;;;;;;3.50;2.55;;;;;;;22.96;100.00;98546.83;1665904;84;28014;-86
2022/07/24 07:18:47;;;;;;;4.37;2.90;;;;;;;23.00;100.00;98542.27;1669780;83;28049;-86
2022/07/24 07:21:13;;;;;;;5.37;2.98;;;;;;;23.16;100.00;98546.61;1667629;84;28078;-86
2022/07/24 07:23:40;;;;;;;6.35;3.35;;;;;;;23.39;100.00;98546.51;1636796;86;28088;-86
2022/07/24 07:26:07;;;;;;;4.83;2.80;;;;;;;23.32;99.36;98543.75;1687610;84;28049;-86
2022/07/24 07:28:33;;;;;;;4.90;3.37;;;;;;;23.27;98.59;98550.15;1684555;82;28283;-86
2022/07/24 07:30:59;;;;;;;4.62;2.65;;;;;;;23.27;98.07;98547.48;1686115;84;28023;-87
2022/07/24 07:33:26;;;;;;;6.03;2.92;;;;;;;23.30;97.76;98545.25;1685730;83;28110;-86
2022/07/24 07:35:53;;;;;;;4.60;3.45;;;;;;;23.43;97.85;98550.45;1685582;82;28060;-86
2022/07/24 07:38:20;;;;;;;4.28;2.90;;;;;;;23.66;98.02;98556.55;1654298;84;28077;-86
2022/07/24 07:40:48;;;;;;;4.20;2.95;;;;;;;23.82;97.91;98558.17;1675931;83;28167;-86
2022/07/24 07:43:14;;;;;;;4.78;3.12;;;;;;;23.83;97.60;98562.50;1661371;84;28120;-86
2022/07/24 07:45:42;;;;;;;4.72;3.10;;;;;;;23.91;97.24;98565.05;1667925;83;28249;-86
2022/07/24 07:48:08;;;;;;;5.37;3.55;;;;;;;23.95;96.90;98567.66;1701199;83;28109;-85
2022/07/24 07:50:34;;;;;;;4.40;3.30;;;;;;;23.88;96.05;98564.11;1698988;82;28057;-86
2022/07/24 07:53:08;;;;;;;4.33;3.40;;;;;;;23.73;94.91;98558.27;1656922;84;28081;-85
2022/07/24 07:55:51;;;;;;;5.70;3.35;;;;;;;23.76;94.47;98559.24;1689977;83;28180;-85
2022/07/24 07:58:15;;;;;;;3.72;3.30;;;;;;;23.81;94.08;98566.69;1672709;83;28052;-86
2022/07/24 08:00:41;;;;;;;3.30;3.00;;;;;;;23.93;93.78;98571.88;1681575;83;28036;-86
2022/07/24 08:03:13;;;;;;;4.85;3.65;;;;;;;23.97;93.35;98570.98;1666743;84;28020;-87
2022/07/24 08:05:40;;;;;;;5.85;3.25;;;;;;;24.01;92.72;98573.59;1710477;81;28080;-86
2022/07/24 08:08:08;;;;;;;4.90;3.40;;;;;;;24.14;92.38;98572.41;1707431;82;28001;-86
2022/07/24 08:10:34;;;;;;;5.15;3.42;;;;;;;24.28;92.13;98570.72;1704298;82;28104;-86
2022/07/24 08:13:03;;;;;;;5.47;3.27;;;;;;;24.40;91.90;98568.69;1702957;83;28116;-86
2022/07/24 08:15:29;;;;;;;3.67;2.90;;;;;;;24.51;91.51;98574.86;1700273;82;28161;-86
2022/07/24 08:17:58;;;;;;;4.45;3.08;;;;;;;24.48;90.94;98577.11;1708293;82;28006;-86
2022/07/24 08:20:27;;;;;;;5.25;2.87;;;;;;;24.39;90.18;98576.89;1704462;83;28089;-84
2022/07/24 08:22:54;;;;;;;4.53;2.80;;;;;;;24.40;89.58;98577.22;1704175;83;28069;-85
2022/07/24 08:25:21;;;;;;;3.47;3.02;;;;;;;24.41;89.06;98575.70;1671939;85;28139;-85
2022/07/24 08:27:49;;;;;;;7.37;3.00;;;;;;;24.47;88.84;98582.97;1705942;83;28029;-84
2022/07/24 08:30:16;;;;;;;4.58;3.35;;;;;;;24.49;88.30;98582.78;1711678;83;28123;-88
2022/07/24 08:32:43;;;;;;;3.58;2.77;;;;;;;24.53;87.32;98581.37;1710453;83;28103;-90
2022/07/24 08:35:11;;;;;;;2.85;2.55;;;;;;;24.45;86.23;98583.66;1708884;83;28116;-90
2022/07/24 08:37:40;;;;;;;4.58;3.05;;;;;;;24.37;85.40;98583.80;1705457;82;28128;-89
2022/07/24 08:40:08;;;;;;;5.42;2.58;;;;;;;24.29;84.24;98581.23;1699570;83;28122;-86
2022/07/24 08:42:36;;;;;;;2.98;2.60;;;;;;;24.38;84.05;98579.28;1711235;81;28115;-83
2022/07/24 08:45:04;;;;;;;3.35;2.72;;;;;;;24.47;83.81;98588.31;1696281;83;28076;-84
2022/07/24 08:47:32;;;;;;;2.95;2.50;;;;;;;24.44;82.83;98586.52;1643336;84;28143;-84
2022/07/24 08:50:02;;;;;;;4.17;3.10;;;;;;;24.49;82.01;98585.45;1678995;82;28078;-87
2022/07/24 08:52:35;;;;;;;2.80;2.60;;;;;;;24.47;81.13;98584.30;1696000;84;28069;-90
2022/07/24 08:55:04;;;;;;;5.42;2.80;;;;;;;24.64;81.04;98579.52;1688813;84;28137;-88
2022/07/24 08:57:34;;;;;;;4.70;2.98;;;;;;;24.86;80.81;98584.33;1690911;84;28114;-90
2022/07/24 09:00:00;;;;;;;4.90;2.80;;;;;;;25.10;80.39;98579.88;1687767;84;27991;-89
2022/07/24 09:02:27;;;;;;;3.10;2.30;;;;;;;25.14;79.59;98587.87;1680235;83;28071;-89
2022/07/24 09:05:01;;;;;;;3.25;2.33;;;;;;;25.12;78.56;98587.73;1652155;84;28137;-85
2022/07/24 09:07:30;;;;;;;3.87;2.45;;;;;;;25.15;77.35;98577.98;1680048;84;28155;-89
2022/07/24 09:10:08;;;;;;;3.52;2.55;;;;;;;25.22;76.63;98593.05;1679773;84;28165;-85
2022/07/24 09:12:38;;;;;;;2.58;2.35;;;;;;;25.28;76.08;98586.08;1681414;83;28083;-85
2022/07/24 09:15:18;;;;;;;4.40;2.67;;;;;;;25.33;75.29;98583.13;1678341;84;28189;-86
2022/07/24 09:17:52;;;;;;;2.72;2.20;;;;;;;25.31;74.58;98591.06;1678378;84;28141;-89
2022/07/24 09:20:28;;;;;;;3.25;2.33;;;;;;;25.37;74.26;98589.73;1682036;83;28019;-85
2022/07/24 09:22:57;;;;;;;2.92;2.40;;;;;;;25.42;73.83;98592.66;1680409;84;28178;-85
2022/07/24 09:25:26;;;;;;;5.17;2.67;;;;;;;25.46;73.21;98593.11;1677855;84;28090;-84
2022/07/24 09:28:04;;;;;;;3.17;2.33;;;;;;;25.49;72.79;98594.03;1673430;84;28151;-87
2022/07/24 09:30:44;;;;;;;3.10;2.58;;;;;;;25.52;72.22;98590.98;1658456;84;28060;-87
2022/07/24 09:33:18;;;;;;;3.40;2.27;;;;;;;25.62;72.09;98591.47;1680591;84;28004;-85
2022/07/24 09:35:54;;;;;;;2.67;2.37;;;;;;;25.60;71.55;98585.98;1678619;84;28106;-85
2022/07/24 09:38:21;;;;;;;2.90;2.60;;;;;;;25.79;71.71;98575.87;1678782;84;27996;-85
2022/07/24 09:40:54;;;;;;;3.17;2.40;;;;;;;26.03;71.57;98576.66;1681953;83;28192;-87
2022/07/24 09:43:26;;;;;;;3.98;2.00;;;;;;;26.21;70.99;98572.89;1664428;84;28162;-85
2022/07/24 09:46:04;;;;;;;4.70;2.37;;;;;;;26.24;70.11;98569.82;1681155;83;28138;-89
2022/07/24 09:48:36;;;;;;;2.70;2.20;;;;;;;26.15;69.28;98577.73;1685071;82;28163;-87
2022/07/24 09:51:11;;;;;;;3.08;2.27;;;;;;;26.03;68.46;98581.19;1688565;82;28128;-87
2022/07/24 09:53:38;;;;;;;5.60;2.50;;;;;;;26.06;67.84;98578.95;1687640;84;28020;-85
2022/07/24 09:56:15;;;;;;;2.60;2.20;;;;;;;26.02;66.99;98579.02;1687838;84;28111;-85
2022/07/24 09:58:47;;;;;;;2.85;2.15;;;;;;;26.16;66.88;98571.85;1688850;82;28179;-85
2022/07/24 10:01:16;;;;;;;2.52;2.08;;;;;;;26.18;66.42;98569.26;1688042;84;28110;-87
2022/07/24 10:03:46;;;;;;;2.33;2.10;;;;;;;26.05;65.09;98562.54;1686409;84;28087;-85
2022/07/24 10:06:14;;;;;;;4.58;2.30;;;;;;;25.92;63.91;98559.81;1684497;82;28083;-85
2022/07/24 10:08:47;;;;;;;3.40;2.10;;;;;;;26.05;63.77;98570.59;1683533;84;28122;-85
2022/07/24 10:11:16;;;;;;;2.87;2.25;;;;;;;26.03;63.23;98573.14;1687674;83;28146;-85
2022/07/24 10:13:43;;;;;;;4.22;2.22;;;;;;;25.95;62.82;98572.83;1689404;84;28127;-87
2022/07/24 10:16:15;;;;;;;2.17;1.92;;;;;;;25.89;62.38;98570.95;1688056;84;28103;-89
2022/07/24 10:18:51;;;;;;;4.97;2.20;;;;;;;25.93;62.14;98567.34;1686596;84;28146;-89
2022/07/24 10:21:37;;;;;;;3.25;1.82;;;;;;;26.03;61.82;98563.24;1685300;84;28101;-89
2022/07/24 10:24:13;;;;;;;2.72;2.27;;;;;;;26.09;61.38;98562.44;1687377;82;28111;-87
2022/07/24 10:26:45;;;;;;;2.83;2.40;;;;;;;25.93;60.56;98554.76;1687295;84;28007;-87
2022/07/24 10:29:20;;;;;;;2.87;2.58;;;;;;;26.03;60.68;98557.88;1667047;84;28221;-85
2022/07/24 10:31:50;;;;;;;2.90;2.15;;;;;;;26.09;60.47;98554.91;1687883;83;28111;-85
2022/07/24 10:34:46;;;;;;;2.10;1.80;;;;;;;26.30;60.66;98553.42;1684395;84;28199;-85
2022/07/24 10:37:23;;;;;;;3.92;2.08;;;;;;;26.44;60.29;98560.48;1685195;84;28094;-85
2022/07/24 10:40:13;;;;;;;2.30;2.10;;;;;;;26.50;59.81;98552.13;1687606;84;28119;-87
2022/07/24 10:43:08;;;;;;;2.45;2.00;;;;;;;26.54;59.17;98551.50;1685581;82;28110;-87
2022/07/24 10:45:35;;;;;;;2.65;2.10;;;;;;;26.64;58.48;98545.71;1633771;86;28124;-87
2022/07/24 10:48:23;;;;;;;2.80;1.90;;;;;;;26.62;57.15;98552.62;1684352;82;28130;-89
2022/07/24 10:51:10;;;;;;;1.92;1.45;;;;;;;26.75;56.91;98553.66;1683285;82;28114;-89
2022/07/24 10:53:46;;;;;;;2.35;1.75;;;;;;;26.82;55.89;98549.12;1703409;82;28182;-89
2022/07/24 10:56:25;;;;;;;2.95;1.80;;;;;;;26.63;54.26;98544.05;1706525;83;28156;-89
2022/07/24 10:59:09;;;;;;;2.15;1.60;;;;;;;26.42;53.29;98542.91;1708388;83;28108;-89
2022/07/24 11:01:47;;;;;;;2.60;1.62;;;;;;;26.51;53.30;98542.50;1709011;82;28073;-87
2022/07/24 11:04:24;;;;;;;1.80;1.62;;;;;;;26.70;53.23;98545.41;1666774;83;28133;-85
2022/07/24 11:07:13;;;;;;;2.62;1.70;;;;;;;26.83;52.87;98544.06;1681213;84;28029;-85
2022/07/24 11:09:55;;;;;;;1.80;1.32;;;;;;;26.91;52.34;98540.66;1683183;84;28113;-85
2022/07/24 11:12:37;;;;;;;2.22;1.67;;;;;;;27.02;52.01;98534.66;1680597;83;28082;-85
2022/07/24 11:17:51;;;;;;;3.80;1.57;;;;;;;26.99;50.73;98536.44;1716540;81;28111;-88
2022/07/24 11:20:19;;;;;;;2.50;2.08;;;;;;;27.08;50.49;98535.68;1713195;82;28083;-85
2022/07/24 11:22:57;;;;;;;1.57;1.47;;;;;;;27.13;49.97;98531.84;1695952;82;28143;-84
2022/07/24 11:25:26;;;;;;;2.37;2.00;;;;;;;27.16;49.49;98534.64;1696367;83;28155;-84
2022/07/24 11:27:59;;;;;;;4.55;1.72;;;;;;;27.16;48.97;98526.58;1706866;82;28136;-84
2022/07/24 11:30:30;;;;;;;2.05;1.82;;;;;;;27.24;48.60;98532.54;1676323;83;28204;-84
2022/07/24 11:33:00;;;;;;;1.98;1.57;;;;;;;27.21;48.39;98527.59;1703011;82;27993;-85
2022/07/24 11:35:50;;;;;;;3.65;2.10;;;;;;;27.26;48.25;98531.82;1702322;83;28085;-85
2022/07/24 11:38:17;;;;;;;3.60;1.90;;;;;;;27.28;48.23;98529.73;1687944;83;28113;-85